createdAt,value
2022-11-17T00:01:28.056Z,2.20
2022-11-17T00:03:56.444Z,2.30
2022-11-17T00:06:24.781Z,1.80
2022-11-17T00:08:53.605Z,2.50
2022-11-17T00:11:22.088Z,2.10
2022-11-17T00:14:09.307Z,1.70
2022-11-17T00:16:37.695Z,2.60
2022-11-17T00:19:24.823Z,2.10
2022-11-17T00:21:53.189Z,1.90
2022-11-17T00:24:23.829Z,3.40
2022-11-17T00:27:04.469Z,1.90
2022-11-17T00:29:34.469Z,2.00
2022-11-17T00:32:23.701Z,2.10
2022-11-17T00:34:52.142Z,1.90
2022-11-17T00:37:20.521Z,2.00
2022-11-17T00:39:48.860Z,1.90
2022-11-17T00:42:17.241Z,1.80
2022-11-17T00:44:45.681Z,2.00
2022-11-17T00:47:14.066Z,1.70
2022-11-17T00:49:42.529Z,2.00
2022-11-17T00:52:11.208Z,1.80
2022-11-17T00:54:39.618Z,1.70
2022-11-17T00:57:08.301Z,2.20
2022-11-17T00:59:36.703Z,1.90
2022-11-17T01:02:05.110Z,2.10
2022-11-17T01:04:33.568Z,1.70
2022-11-17T01:07:02.014Z,2.40
2022-11-17T01:09:30.449Z,1.90
2022-11-17T01:11:58.868Z,1.70
2022-11-17T01:14:30.198Z,2.20
2022-11-17T01:16:58.762Z,1.80
2022-11-17T01:19:27.152Z,1.90
2022-11-17T01:21:55.523Z,2.30
2022-11-17T01:24:23.859Z,1.90
2022-11-17T01:26:52.330Z,2.10
2022-11-17T01:29:20.734Z,2.00
2022-11-17T01:31:52.649Z,1.60
2022-11-17T01:34:21.118Z,2.20
2022-11-17T01:37:08.162Z,1.80
2022-11-17T01:39:36.589Z,2.30
2022-11-17T01:42:13.003Z,2.00
2022-11-17T01:45:02.678Z,1.80
2022-11-17T01:47:36.989Z,2.00
2022-11-17T01:50:13.034Z,1.60
2022-11-17T01:52:42.361Z,1.90
2022-11-17T01:55:11.702Z,1.80
2022-11-17T01:57:46.095Z,2.00
2022-11-17T02:00:15.232Z,2.30
2022-11-17T02:02:44.675Z,1.90
2022-11-17T02:05:41.119Z,2.00
2022-11-17T02:08:11.480Z,2.00
2022-11-17T02:10:40.441Z,1.80
2022-11-17T02:13:09.789Z,2.00
2022-11-17T02:15:38.267Z,2.20
2022-11-17T02:18:07.004Z,1.80
2022-11-17T02:20:50.885Z,1.80
2022-11-17T02:23:38.273Z,1.80
2022-11-17T02:26:37.462Z,1.90
2022-11-17T02:29:25.149Z,1.80
2022-11-17T02:32:01.219Z,1.60
2022-11-17T02:34:54.562Z,1.90
2022-11-17T02:37:44.480Z,1.80
2022-11-17T02:40:43.080Z,1.40
2022-11-17T02:43:37.086Z,1.90
2022-11-17T02:46:17.836Z,1.70
2022-11-17T02:48:53.284Z,1.60
2022-11-17T02:51:24.327Z,1.50
2022-11-17T02:53:55.565Z,2.10
2022-11-17T02:56:23.981Z,2.00
2022-11-17T02:58:59.949Z,1.90
2022-11-17T03:01:37.104Z,1.50
2022-11-17T03:04:30.992Z,1.80
2022-11-17T03:07:03.146Z,1.80
2022-11-17T03:09:53.707Z,1.80
2022-11-17T03:12:34.206Z,1.60
2022-11-17T03:15:24.230Z,2.00
2022-11-17T03:18:20.790Z,2.20
2022-11-17T03:21:04.174Z,1.70
2022-11-17T03:23:54.910Z,2.00
2022-11-17T03:26:37.853Z,1.90
2022-11-17T03:29:11.721Z,2.20
2022-11-17T03:31:43.697Z,2.10
2022-11-17T03:34:18.508Z,2.00
2022-11-17T03:36:52.256Z,2.10
2022-11-17T03:39:25.459Z,2.00
2022-11-17T03:41:59.413Z,2.00
2022-11-17T03:44:30.296Z,2.00
2022-11-17T03:47:02.988Z,1.90
2022-11-17T03:49:34.175Z,1.90
2022-11-17T03:52:04.121Z,2.70
2022-11-17T03:54:33.882Z,1.90
2022-11-17T03:57:12.906Z,1.80
2022-11-17T03:59:55.559Z,1.70
2022-11-17T04:02:26.153Z,1.70
2022-11-17T04:05:06.436Z,2.40
2022-11-17T04:07:46.219Z,1.60
2022-11-17T04:10:22.813Z,2.00
2022-11-17T04:13:10.156Z,1.40
2022-11-17T04:15:57.049Z,1.70
2022-11-17T04:18:26.725Z,1.40
2022-11-17T04:20:56.994Z,1.50
2022-11-17T04:23:25.995Z,1.60
2022-11-17T04:26:14.346Z,1.60
2022-11-17T04:28:47.201Z,1.40
2022-11-17T04:31:21.607Z,1.50
2022-11-17T04:34:01.334Z,1.40
2022-11-17T04:36:37.078Z,1.20
2022-11-17T04:39:05.546Z,1.60
2022-11-17T04:41:53.711Z,1.60
2022-11-17T04:44:27.809Z,1.40
2022-11-17T04:46:57.305Z,1.90
2022-11-17T04:49:26.436Z,2.30
2022-11-17T04:51:54.910Z,1.80
2022-11-17T04:54:27.721Z,1.60
2022-11-17T04:56:56.701Z,1.90
2022-11-17T04:59:25.200Z,1.70
2022-11-17T05:01:53.719Z,1.80
2022-11-17T05:04:48.230Z,1.70
2022-11-17T05:07:16.599Z,1.80
2022-11-17T05:09:45.033Z,1.60
2022-11-17T05:12:32.175Z,1.50
2022-11-17T05:15:00.637Z,2.20
2022-11-17T05:17:28.967Z,2.00
2022-11-17T05:19:57.658Z,1.70
2022-11-17T05:22:44.544Z,1.70
2022-11-17T05:25:13.071Z,1.70
2022-11-17T05:27:41.521Z,1.70
2022-11-17T05:30:10.829Z,1.70
2022-11-17T05:32:39.311Z,1.60
2022-11-17T05:35:08.169Z,1.70
2022-11-17T05:37:36.559Z,2.20
2022-11-17T05:40:05.471Z,1.90
2022-11-17T05:42:35.521Z,1.80
2022-11-17T05:45:04.169Z,1.80
2022-11-17T05:47:32.604Z,1.90
2022-11-17T05:50:01.016Z,1.60
2022-11-17T05:52:29.330Z,1.70
2022-11-17T05:54:57.670Z,1.90
2022-11-17T05:57:31.156Z,1.80
2022-11-17T06:00:04.715Z,1.60
2022-11-17T06:02:47.260Z,1.50
2022-11-17T06:05:20.189Z,1.80
2022-11-17T06:07:49.681Z,1.80
2022-11-17T06:10:21.028Z,1.90
2022-11-17T06:12:49.481Z,1.70
2022-11-17T06:15:18.297Z,1.60
2022-11-17T06:17:55.916Z,1.80
2022-11-17T06:20:34.793Z,1.60
2022-11-17T06:23:06.553Z,1.50
2022-11-17T06:25:37.318Z,1.50
2022-11-17T06:28:11.002Z,1.90
2022-11-17T06:30:40.487Z,1.70
2022-11-17T06:33:14.526Z,1.80
2022-11-17T06:35:45.607Z,1.80
2022-11-17T06:38:14.159Z,1.80
2022-11-17T06:40:42.509Z,2.30
2022-11-17T06:43:10.978Z,2.10
2022-11-17T06:45:43.567Z,2.10
2022-11-17T06:48:14.836Z,1.60
2022-11-17T06:50:44.052Z,2.60
2022-11-17T06:53:12.817Z,2.30
2022-11-17T06:55:41.851Z,2.00
2022-11-17T06:58:14.162Z,2.40
2022-11-17T07:00:42.616Z,2.40
2022-11-17T07:03:11.160Z,2.50
2022-11-17T07:05:40.404Z,2.20
2022-11-17T07:08:09.267Z,3.00
2022-11-17T07:10:38.551Z,3.30
2022-11-17T07:13:07.125Z,2.60
2022-11-17T07:15:35.480Z,2.10
2022-11-17T07:18:04.110Z,2.70
2022-11-17T07:20:32.457Z,2.50
2022-11-17T07:23:00.876Z,3.20
2022-11-17T07:25:29.251Z,2.60
2022-11-17T07:27:59.523Z,3.20
2022-11-17T07:30:28.267Z,3.00
2022-11-17T07:33:00.198Z,2.70
2022-11-17T07:35:28.892Z,2.30
2022-11-17T07:37:59.359Z,3.30
2022-11-17T07:40:29.005Z,2.90
2022-11-17T07:42:57.453Z,2.70
2022-11-17T07:45:31.376Z,3.60
2022-11-17T07:48:02.292Z,3.70
2022-11-17T07:50:31.536Z,4.40
2022-11-17T07:53:00.076Z,3.20
2022-11-17T07:55:28.619Z,3.40
2022-11-17T07:57:58.972Z,3.60
2022-11-17T08:00:29.741Z,3.70
2022-11-17T08:03:03.693Z,3.40
2022-11-17T08:05:41.793Z,3.30
2022-11-17T08:08:13.506Z,3.70
2022-11-17T08:10:43.228Z,3.40
2022-11-17T08:13:12.920Z,3.10
2022-11-17T08:15:42.484Z,4.10
2022-11-17T08:18:11.034Z,4.00
2022-11-17T08:20:39.482Z,3.70
2022-11-17T08:23:07.974Z,4.40
2022-11-17T08:25:36.427Z,3.90
2022-11-17T08:28:04.936Z,4.50
2022-11-17T08:30:36.364Z,5.30
2022-11-17T08:33:04.798Z,5.00
2022-11-17T08:35:37.451Z,5.80
2022-11-17T08:38:06.866Z,5.80
2022-11-17T08:40:35.125Z,5.10
2022-11-17T08:43:03.920Z,5.30
2022-11-17T08:45:32.438Z,4.50
2022-11-17T08:48:00.823Z,4.90
2022-11-17T08:50:29.109Z,4.90
2022-11-17T08:52:57.534Z,5.80
2022-11-17T08:55:26.480Z,5.00
2022-11-17T08:57:55.054Z,4.60
2022-11-17T09:00:25.269Z,4.90
2022-11-17T09:02:53.571Z,4.30
2022-11-17T09:05:21.933Z,5.80
2022-11-17T09:07:50.610Z,7.50
2022-11-17T09:10:19.059Z,6.80
2022-11-17T09:12:47.380Z,6.00
2022-11-17T09:15:15.738Z,5.70
2022-11-17T09:17:47.802Z,5.00
2022-11-17T09:20:17.693Z,5.20
2022-11-17T09:22:46.604Z,5.10
2022-11-17T09:25:15.175Z,4.80
2022-11-17T09:27:43.647Z,3.80
2022-11-17T09:30:12.302Z,4.20
2022-11-17T09:32:40.746Z,3.90
2022-11-17T09:35:09.512Z,4.10
2022-11-17T09:37:37.956Z,4.40
2022-11-17T09:40:07.466Z,4.00
2022-11-17T09:42:40.700Z,3.70
2022-11-17T09:45:18.152Z,3.30
2022-11-17T09:48:38.787Z,3.90
2022-11-17T09:51:02.505Z,4.00
2022-11-17T09:53:54.432Z,4.30
2022-11-17T09:56:23.027Z,6.50
2022-11-17T09:58:57.041Z,8.90
2022-11-17T10:01:28.671Z,6.30
2022-11-17T10:04:00.115Z,5.20
2022-11-17T10:06:34.860Z,4.00
2022-11-17T10:09:24.112Z,3.60
2022-11-17T10:11:59.672Z,4.10
2022-11-17T10:14:29.169Z,4.60
2022-11-17T10:16:59.033Z,4.10
2022-11-17T10:19:30.531Z,4.00
2022-11-17T10:22:02.089Z,3.70
2022-11-17T10:24:50.513Z,4.50
2022-11-17T10:27:34.341Z,4.70
2022-11-17T10:30:21.315Z,4.10
2022-11-17T10:32:58.391Z,10.60
2022-11-17T10:35:30.786Z,22.30
2022-11-17T10:38:02.038Z,11.60
2022-11-17T10:40:33.001Z,14.40
2022-11-17T10:43:13.429Z,16.20
2022-11-17T10:45:56.639Z,6.60
2022-11-17T10:48:29.617Z,6.40
2022-11-17T10:51:02.068Z,6.50
2022-11-17T10:53:41.353Z,6.20
2022-11-17T10:56:21.645Z,5.00
2022-11-17T10:59:14.652Z,5.00
2022-11-17T11:01:45.923Z,6.00
2022-11-17T11:04:35.475Z,4.70
2022-11-17T11:07:09.800Z,5.60
2022-11-17T11:10:10.570Z,5.00
2022-11-17T11:12:45.138Z,4.30
2022-11-17T11:15:35.846Z,5.30
2022-11-17T11:18:16.184Z,4.50
2022-11-17T11:20:57.001Z,4.70
2022-11-17T11:23:43.966Z,4.30
2022-11-17T11:26:16.556Z,5.70
2022-11-17T11:29:05.681Z,5.80
2022-11-17T11:31:40.031Z,5.30
2022-11-17T11:34:15.393Z,5.90
2022-11-17T11:36:54.039Z,6.40
2022-11-17T11:39:25.489Z,6.90
2022-11-17T11:42:10.737Z,7.90
2022-11-17T11:45:13.673Z,8.40
2022-11-17T11:48:05.882Z,7.60
2022-11-17T11:50:41.829Z,5.40
2022-11-17T11:53:24.456Z,5.80
2022-11-17T11:56:12.741Z,6.10
2022-11-17T11:58:48.240Z,5.60
2022-11-17T12:01:19.916Z,5.00
2022-11-17T12:04:13.068Z,5.50
2022-11-17T12:06:55.695Z,9.10
2022-11-17T12:09:48.224Z,9.00
2022-11-17T12:12:29.561Z,8.90
2022-11-17T12:15:18.953Z,11.10
2022-11-17T12:17:53.372Z,11.50
2022-11-17T12:20:33.604Z,7.20
2022-11-17T12:23:22.202Z,8.60
2022-11-17T12:25:57.369Z,8.20
2022-11-17T12:31:43.431Z,7.60
2022-11-17T12:34:30.870Z,9.80
2022-11-17T12:37:22.159Z,6.20
2022-11-17T12:40:02.478Z,7.30
2022-11-17T12:42:32.916Z,7.30
2022-11-17T12:45:12.352Z,49.80
2022-11-17T12:48:04.981Z,6.60
2022-11-17T12:50:49.078Z,8.80
2022-11-17T12:53:29.129Z,8.00
2022-11-17T12:56:19.420Z,6.70
2022-11-17T12:59:00.103Z,5.50
2022-11-17T13:01:40.807Z,7.80
2022-11-17T13:04:12.270Z,8.20
2022-11-17T13:07:04.452Z,9.50
2022-11-17T13:09:35.797Z,10.00
2022-11-17T13:12:06.829Z,9.80
2022-11-17T13:14:37.125Z,10.30
2022-11-17T13:17:11.558Z,7.70
2022-11-17T13:19:41.718Z,9.50
2022-11-17T13:22:15.419Z,6.80
2022-11-17T13:24:49.299Z,8.10
2022-11-17T13:27:25.782Z,6.90
2022-11-17T13:30:13.997Z,12.20
2022-11-17T13:32:42.935Z,8.40
2022-11-17T13:35:26.274Z,20.00
2022-11-17T13:38:15.959Z,7.50
2022-11-17T13:40:45.322Z,9.10
2022-11-17T13:43:29.395Z,12.40
2022-11-17T13:45:58.170Z,7.50
2022-11-17T13:48:38.538Z,10.30
2022-11-17T13:51:27.859Z,10.00
2022-11-17T13:54:16.370Z,10.80
2022-11-17T13:56:48.083Z,11.60
2022-11-17T13:59:34.508Z,8.40
2022-11-17T14:02:19.440Z,13.80
2022-11-17T14:05:18.646Z,10.60
2022-11-17T14:07:47.684Z,11.90
2022-11-17T14:10:22.017Z,12.80
2022-11-17T14:12:53.616Z,12.10
2022-11-17T14:15:24.784Z,9.50
2022-11-17T14:17:55.314Z,9.50
2022-11-17T14:20:23.728Z,8.30
2022-11-17T14:23:22.265Z,9.30
2022-11-17T14:25:51.472Z,11.30
2022-11-17T14:28:23.367Z,10.00
2022-11-17T14:30:55.415Z,9.90
2022-11-17T14:33:24.524Z,10.00
2022-11-17T14:35:56.939Z,9.30
2022-11-17T14:38:25.700Z,10.10
2022-11-17T14:40:54.177Z,7.80
2022-11-17T14:43:23.350Z,8.50
2022-11-17T14:45:51.702Z,8.60
2022-11-17T14:48:20.437Z,8.50
2022-11-17T14:50:48.988Z,9.20
2022-11-17T14:53:17.319Z,8.90
2022-11-17T14:55:45.662Z,8.50
2022-11-17T14:58:13.940Z,11.60
2022-11-17T15:00:42.293Z,13.30
2022-11-17T15:03:10.735Z,13.30
2022-11-17T15:05:45.542Z,12.10
2022-11-17T15:08:14.556Z,11.60
2022-11-17T15:10:44.475Z,13.00
2022-11-17T15:13:13.022Z,16.50
2022-11-17T15:15:41.457Z,19.90
2022-11-17T15:18:11.859Z,25.80
2022-11-17T15:20:40.241Z,33.70
2022-11-17T15:23:08.647Z,20.80
2022-11-17T15:25:38.919Z,17.50
2022-11-17T15:28:07.254Z,18.10
2022-11-17T15:30:35.680Z,19.30
2022-11-17T15:33:04.148Z,19.90
2022-11-17T15:35:32.481Z,17.40
2022-11-17T15:38:00.817Z,14.50
2022-11-17T15:40:29.386Z,13.00
2022-11-17T15:42:57.827Z,12.60
2022-11-17T15:45:26.203Z,13.00
2022-11-17T15:47:54.501Z,13.30
2022-11-17T15:50:22.821Z,11.80
2022-11-17T15:53:05.294Z,13.30
2022-11-17T15:55:35.205Z,10.60
2022-11-17T15:58:04.221Z,9.60
2022-11-17T16:00:33.913Z,9.30
2022-11-17T16:03:02.366Z,13.30
2022-11-17T16:05:30.679Z,14.50
2022-11-17T16:07:58.979Z,11.60
2022-11-17T16:10:27.518Z,15.80
2022-11-17T16:12:56.468Z,17.10
2022-11-17T16:15:24.972Z,14.30
2022-11-17T16:17:53.320Z,11.00
2022-11-17T16:20:21.771Z,10.40
2022-11-17T16:22:50.245Z,12.60
2022-11-17T16:25:18.645Z,11.60
2022-11-17T16:27:47.048Z,13.60
2022-11-17T16:30:16.039Z,12.60
2022-11-17T16:32:44.469Z,12.30
2022-11-17T16:35:12.914Z,15.00
2022-11-17T16:37:41.298Z,12.50
2022-11-17T16:40:10.835Z,13.70
2022-11-17T16:42:39.238Z,16.50
2022-11-17T16:45:08.136Z,15.90
2022-11-17T16:47:36.591Z,17.10
2022-11-17T16:50:12.713Z,14.10
2022-11-17T16:52:41.001Z,13.80
2022-11-17T16:55:09.663Z,16.70
2022-11-17T16:57:37.980Z,16.70
2022-11-17T17:00:07.048Z,18.90
2022-11-17T17:02:35.521Z,19.40
2022-11-17T17:05:04.028Z,21.70
2022-11-17T17:07:32.435Z,20.80
2022-11-17T17:10:00.826Z,20.60
2022-11-17T17:12:29.218Z,22.00
2022-11-17T17:14:57.777Z,23.20
2022-11-17T17:17:26.190Z,21.10
2022-11-17T17:19:54.804Z,22.90
2022-11-17T17:22:23.161Z,20.20
2022-11-17T17:24:52.730Z,22.10
2022-11-17T17:27:21.029Z,23.90
2022-11-17T17:29:49.516Z,24.10
2022-11-17T17:32:18.022Z,27.40
2022-11-17T17:34:46.306Z,26.90
2022-11-17T17:37:14.575Z,29.50
2022-11-17T17:39:42.897Z,31.70
2022-11-17T17:42:14.827Z,33.90
2022-11-17T17:44:43.273Z,36.10
2022-11-17T17:47:11.683Z,33.90
2022-11-17T17:49:39.956Z,29.40
2022-11-17T17:52:13.535Z,29.00
2022-11-17T17:54:42.327Z,29.20
2022-11-17T17:57:13.188Z,108.00
2022-11-17T17:59:41.576Z,33.00
2022-11-17T18:02:10.208Z,29.40
2022-11-17T18:04:38.617Z,117.60
2022-11-17T18:07:14.181Z,25.30
2022-11-17T18:09:46.051Z,24.40
2022-11-17T18:12:14.443Z,23.40
2022-11-17T18:14:43.766Z,21.80
2022-11-17T18:17:12.060Z,19.50
2022-11-17T18:19:43.581Z,21.10
2022-11-17T18:22:11.999Z,21.50
2022-11-17T18:24:40.619Z,22.30
2022-11-17T18:27:11.878Z,22.60
2022-11-17T18:29:50.015Z,23.10
2022-11-17T18:32:20.063Z,21.40
2022-11-17T18:34:49.702Z,21.50
2022-11-17T18:37:19.950Z,24.80
2022-11-17T18:39:48.747Z,24.00
2022-11-17T18:42:23.274Z,23.70
2022-11-17T18:44:51.808Z,24.80
2022-11-17T18:47:23.041Z,25.50
2022-11-17T18:49:51.412Z,30.30
2022-11-17T18:52:25.897Z,29.90
2022-11-17T18:54:57.125Z,28.50
2022-11-17T18:57:28.291Z,32.10
2022-11-17T18:59:56.720Z,29.20
2022-11-17T19:02:25.319Z,25.90
2022-11-17T19:04:53.876Z,22.80
2022-11-17T19:07:25.024Z,23.10
2022-11-17T19:09:53.784Z,23.30
2022-11-17T19:12:25.375Z,22.30
2022-11-17T19:14:53.794Z,23.50
2022-11-17T19:17:22.140Z,24.00
2022-11-17T19:19:51.654Z,23.90
2022-11-17T19:22:23.353Z,23.80
2022-11-17T19:24:51.869Z,22.30
2022-11-17T19:27:20.211Z,21.80
2022-11-17T19:29:50.211Z,24.60
2022-11-17T19:32:18.622Z,24.10
2022-11-17T19:34:53.375Z,27.80
2022-11-17T19:37:22.490Z,26.90
2022-11-17T19:39:53.928Z,28.80
2022-11-17T19:42:26.688Z,26.40
2022-11-17T19:44:55.379Z,26.10
2022-11-17T19:47:24.261Z,26.30
2022-11-17T19:49:53.072Z,56.90
2022-11-17T19:52:22.859Z,69.10
2022-11-17T19:54:53.759Z,33.90
2022-11-17T19:57:23.306Z,32.10
2022-11-17T19:59:52.080Z,33.60
2022-11-17T20:02:23.293Z,35.00
2022-11-17T20:04:51.987Z,33.60
2022-11-17T20:07:20.457Z,31.20
2022-11-17T20:09:51.189Z,38.60
2022-11-17T20:12:19.624Z,29.50
2022-11-17T20:14:48.547Z,25.60
2022-11-17T20:17:21.043Z,40.80
2022-11-17T20:19:50.829Z,34.20
2022-11-17T20:22:23.152Z,31.30
2022-11-17T20:24:52.187Z,26.70
2022-11-17T20:27:26.352Z,24.40
2022-11-17T20:29:57.741Z,24.10
2022-11-17T20:32:26.163Z,23.60
2022-11-17T20:34:57.961Z,26.00
2022-11-17T20:37:26.452Z,27.20
2022-11-17T20:39:54.833Z,27.70
2022-11-17T20:42:26.289Z,28.10
2022-11-17T20:44:56.501Z,26.10
2022-11-17T20:47:27.559Z,25.70
2022-11-17T20:49:57.047Z,28.70
2022-11-17T20:52:25.440Z,27.60
2022-11-17T20:54:53.780Z,34.80
2022-11-17T20:57:24.211Z,42.70
2022-11-17T20:59:52.579Z,37.20
2022-11-17T21:02:21.076Z,30.20
2022-11-17T21:04:49.555Z,31.60
2022-11-17T21:07:17.912Z,28.60
2022-11-17T21:09:49.042Z,27.70
2022-11-17T21:12:20.249Z,28.30
2022-11-17T21:14:49.088Z,27.60
2022-11-17T21:17:36.350Z,26.90
2022-11-17T21:20:05.632Z,26.70
2022-11-17T21:22:35.936Z,28.40
2022-11-17T21:25:04.537Z,28.60
2022-11-17T21:27:32.992Z,29.10
2022-11-17T21:30:01.365Z,29.70
2022-11-17T21:32:29.884Z,27.70
2022-11-17T21:34:59.484Z,30.60
2022-11-17T21:37:28.167Z,28.00
2022-11-17T21:39:56.644Z,29.40
2022-11-17T21:42:25.415Z,29.70
2022-11-17T21:44:53.857Z,29.70
2022-11-17T21:47:22.197Z,28.80
2022-11-17T21:49:50.474Z,28.80
2022-11-17T21:52:18.942Z,28.20
2022-11-17T21:54:47.292Z,26.90
2022-11-17T21:57:15.638Z,28.00
2022-11-17T21:59:43.967Z,26.30
2022-11-17T22:02:12.395Z,26.80
2022-11-17T22:04:40.708Z,25.10
2022-11-17T22:07:09.254Z,23.70
2022-11-17T22:09:37.547Z,25.30
2022-11-17T22:12:06.128Z,23.80
2022-11-17T22:14:34.548Z,24.70
2022-11-17T22:17:03.006Z,22.50
2022-11-17T22:19:31.356Z,21.60
2022-11-17T22:21:59.685Z,21.90
2022-11-17T22:24:28.092Z,23.10
2022-11-17T22:26:56.426Z,22.30
2022-11-17T22:29:25.054Z,22.90
2022-11-17T22:31:53.345Z,23.60
2022-11-17T22:34:21.644Z,24.70
2022-11-17T22:36:49.939Z,22.80
2022-11-17T22:39:18.597Z,22.70
2022-11-17T22:41:47.219Z,25.70
2022-11-17T22:44:16.554Z,24.00
2022-11-17T22:46:45.768Z,23.70
2022-11-17T22:49:14.683Z,22.80
2022-11-17T22:52:01.952Z,24.10
2022-11-17T22:54:31.317Z,24.30
2022-11-17T22:56:59.816Z,22.50
2022-11-17T22:59:29.714Z,23.00
2022-11-17T23:01:58.317Z,24.60
2022-11-17T23:04:26.780Z,24.90
2022-11-17T23:06:55.212Z,24.20
2022-11-17T23:09:23.540Z,24.50
2022-11-17T23:11:51.969Z,23.20
2022-11-17T23:14:20.357Z,25.00
2022-11-17T23:16:48.722Z,25.10
2022-11-17T23:19:17.569Z,24.40
2022-11-17T23:21:46.142Z,23.80
2022-11-17T23:24:14.905Z,21.90
2022-11-17T23:26:43.451Z,24.90
2022-11-17T23:29:11.852Z,21.90
2022-11-17T23:31:40.272Z,20.90
2022-11-17T23:34:12.150Z,22.80
2022-11-17T23:36:40.450Z,23.40
2022-11-17T23:39:09.047Z,21.40
2022-11-17T23:41:37.479Z,21.20
2022-11-17T23:44:06.157Z,21.00
2022-11-17T23:46:34.740Z,20.20
2022-11-17T23:49:03.436Z,19.60
2022-11-17T23:51:31.794Z,20.10
2022-11-17T23:54:01.623Z,19.30
2022-11-17T23:56:34.315Z,19.80
2022-11-17T23:59:03.625Z,19.30
